Airport View

Enter AWOS ICAO identifier for current METAR.

ex. KFNL

KACV 202353Z AUTO 34011KT 10SM CLR 21/13 A3004 RMK AO2 SLP176 T02060128 10222 20167 55005

21 Sep 2019 00:24

Frequency: 118.525

Phone: 707-839-7429

Other Area AWOS: KFOT - KCEC - KO54 - KO86

TAF AMD KACV 210001Z 2100/2124 34011KT P6SM SKC FM210300 35005KT P6SM FEW010 FM210500 00000KT 6SM BR SKC FM211400 13003KT P6SM FEW004 FM211900 33012KT P6SM SKC